OAL1KY LGAV-LGKY
Flight info
| Callsign | OAL1KY |
|---|---|
| Flight time | 0h 41m |
| Altitude | 19000 |
| Route | KEA L995 KOPAR |
| Aircraft | AT76/M-SDFGIRY/S |
Departure
| Time | 2026-04-11 10:15 |
|---|---|
| Airport | Athens Eleftherios Venizelos International Airport (LGAV) |
Arrival
| Time | 2026-04-11 10:57 |
|---|---|
| Airport | Kalymnos Airport (LGKY) |
| Time | Latitude | Longitude | Altitude | Speed | Heading |
|---|---|---|---|---|---|
| 2026-04-11 09:45 | 37.94438 | 23.95422 | 298 ft | 0 kts | 218° |
| 2026-04-11 10:09 | 37.94422 | 23.95406 | 298 ft | 8 kts | 217° |
| 2026-04-11 10:09 | 37.94357 | 23.95463 | 297 ft | 24 kts | 129° |
| 2026-04-11 10:09 | 37.94265 | 23.95612 | 297 ft | 13 kts | 128° |
| 2026-04-11 10:09 | 37.94192 | 23.95655 | 296 ft | 12 kts | 211° |
| 2026-04-11 10:10 | 37.94120 | 23.95603 | 298 ft | 12 kts | 174° |
| 2026-04-11 10:10 | 37.94040 | 23.95645 | 293 ft | 17 kts | 193° |
| 2026-04-11 10:10 | 37.93939 | 23.95557 | 295 ft | 19 kts | 217° |
| 2026-04-11 10:10 | 37.93835 | 23.95458 | 293 ft | 17 kts | 217° |
| 2026-04-11 10:11 | 37.93744 | 23.95371 | 293 ft | 16 kts | 216° |
| 2026-04-11 10:11 | 37.93661 | 23.95293 | 296 ft | 14 kts | 217° |
| 2026-04-11 10:11 | 37.93582 | 23.95218 | 297 ft | 14 kts | 217° |
| 2026-04-11 10:11 | 37.93498 | 23.95136 | 298 ft | 19 kts | 218° |
| 2026-04-11 10:12 | 37.93405 | 23.95048 | 298 ft | 14 kts | 216° |
| 2026-04-11 10:12 | 37.93327 | 23.94975 | 298 ft | 13 kts | 217° |
| 2026-04-11 10:12 | 37.93254 | 23.94906 | 296 ft | 13 kts | 217° |
| 2026-04-11 10:12 | 37.93181 | 23.94847 | 296 ft | 13 kts | 188° |
| 2026-04-11 10:13 | 37.93134 | 23.94914 | 294 ft | 6 kts | 78° |
| 2026-04-11 10:13 | 37.93144 | 23.94946 | 295 ft | 6 kts | 68° |
| 2026-04-11 10:13 | 37.93164 | 23.95010 | 291 ft | 10 kts | 68° |
| 2026-04-11 10:13 | 37.93180 | 23.95098 | 288 ft | 10 kts | 83° |
| 2026-04-11 10:14 | 37.93196 | 23.95126 | 288 ft | 0 kts | 37° |
| 2026-04-11 10:14 | 37.93200 | 23.95130 | 287 ft | 11 kts | 37° |
| 2026-04-11 10:15 | 37.93434 | 23.95352 | 282 ft | 72 kts | 37° |
| 2026-04-11 10:15 | 37.93995 | 23.95881 | 278 ft | 126 kts | 37° |
| 2026-04-11 10:15 | 37.94761 | 23.96608 | 593 ft | 144 kts | 36° |
| 2026-04-11 10:15 | 37.95599 | 23.97357 | 1120 ft | 152 kts | 34° |
| 2026-04-11 10:16 | 37.96490 | 23.98156 | 1498 ft | 158 kts | 38° |
| 2026-04-11 10:16 | 37.97367 | 23.99009 | 1898 ft | 158 kts | 39° |
| 2026-04-11 10:16 | 37.98252 | 23.99887 | 2150 ft | 170 kts | 38° |
| 2026-04-11 10:16 | 37.99217 | 24.00847 | 2380 ft | 181 kts | 39° |
| 2026-04-11 10:17 | 38.00216 | 24.01872 | 2677 ft | 188 kts | 40° |
| 2026-04-11 10:17 | 38.01239 | 24.02930 | 2986 ft | 192 kts | 39° |
| 2026-04-11 10:17 | 38.02275 | 24.04023 | 3314 ft | 195 kts | 39° |
| 2026-04-11 10:17 | 38.03307 | 24.05149 | 3662 ft | 194 kts | 44° |
| 2026-04-11 10:18 | 38.03857 | 24.06679 | 3953 ft | 198 kts | 89° |
| 2026-04-11 10:18 | 38.03417 | 24.08303 | 4271 ft | 199 kts | 131° |
| 2026-04-11 10:18 | 38.02462 | 24.09564 | 4650 ft | 199 kts | 137° |
| 2026-04-11 10:18 | 38.01478 | 24.10792 | 5034 ft | 198 kts | 137° |
| 2026-04-11 10:19 | 38.00504 | 24.12035 | 5367 ft | 201 kts | 136° |
| 2026-04-11 10:19 | 37.99536 | 24.13320 | 5693 ft | 201 kts | 135° |
| 2026-04-11 10:19 | 37.98593 | 24.14651 | 6019 ft | 204 kts | 133° |
| 2026-04-11 10:19 | 37.97645 | 24.16010 | 6345 ft | 207 kts | 133° |
| 2026-04-11 10:20 | 37.96690 | 24.17389 | 6666 ft | 209 kts | 133° |
| 2026-04-11 10:20 | 37.95726 | 24.18782 | 6986 ft | 211 kts | 133° |
| 2026-04-11 10:20 | 37.94751 | 24.20186 | 7299 ft | 213 kts | 133° |
| 2026-04-11 10:20 | 37.93770 | 24.21601 | 7626 ft | 214 kts | 133° |
| 2026-04-11 10:21 | 37.92780 | 24.23025 | 8026 ft | 216 kts | 133° |
| 2026-04-11 10:21 | 37.91797 | 24.24444 | 8425 ft | 218 kts | 133° |
| 2026-04-11 10:21 | 37.90792 | 24.25892 | 8771 ft | 220 kts | 133° |
| 2026-04-11 10:21 | 37.89776 | 24.27351 | 9095 ft | 222 kts | 133° |
| 2026-04-11 10:22 | 37.88756 | 24.28821 | 9414 ft | 223 kts | 133° |
| 2026-04-11 10:22 | 37.87728 | 24.30300 | 9747 ft | 224 kts | 133° |
| 2026-04-11 10:22 | 37.86696 | 24.31785 | 10076 ft | 225 kts | 133° |
| 2026-04-11 10:22 | 37.85658 | 24.33278 | 10420 ft | 226 kts | 133° |
| 2026-04-11 10:23 | 37.84619 | 24.34774 | 10717 ft | 227 kts | 132° |
| 2026-04-11 10:23 | 37.83575 | 24.36277 | 10995 ft | 228 kts | 132° |
| 2026-04-11 10:23 | 37.82527 | 24.37783 | 11266 ft | 228 kts | 132° |
| 2026-04-11 10:23 | 37.81475 | 24.39294 | 11543 ft | 230 kts | 131° |
| 2026-04-11 10:24 | 37.80418 | 24.40816 | 11805 ft | 231 kts | 131° |
| 2026-04-11 10:24 | 37.79355 | 24.42344 | 12090 ft | 232 kts | 131° |
| 2026-04-11 10:24 | 37.78269 | 24.43899 | 12277 ft | 238 kts | 131° |
| 2026-04-11 10:24 | 37.77171 | 24.45473 | 12531 ft | 239 kts | 131° |
| 2026-04-11 10:25 | 37.76067 | 24.47058 | 12787 ft | 241 kts | 131° |
| 2026-04-11 10:25 | 37.74956 | 24.48647 | 13039 ft | 242 kts | 131° |
| 2026-04-11 10:25 | 37.73840 | 24.50246 | 13287 ft | 243 kts | 130° |
| 2026-04-11 10:25 | 37.72719 | 24.51851 | 13535 ft | 245 kts | 131° |
| 2026-04-11 10:26 | 37.71589 | 24.53465 | 13778 ft | 246 kts | 130° |
| 2026-04-11 10:26 | 37.70456 | 24.55089 | 14013 ft | 247 kts | 130° |
| 2026-04-11 10:26 | 37.69330 | 24.56697 | 14228 ft | 248 kts | 130° |
| 2026-04-11 10:26 | 37.68184 | 24.58332 | 14437 ft | 249 kts | 130° |
| 2026-04-11 10:27 | 37.67034 | 24.59974 | 14644 ft | 250 kts | 130° |
| 2026-04-11 10:27 | 37.65877 | 24.61621 | 14849 ft | 251 kts | 131° |
| 2026-04-11 10:27 | 37.64717 | 24.63276 | 15051 ft | 252 kts | 130° |
| 2026-04-11 10:27 | 37.63553 | 24.64933 | 15260 ft | 253 kts | 131° |
| 2026-04-11 10:28 | 37.62381 | 24.66599 | 15455 ft | 254 kts | 130° |
| 2026-04-11 10:28 | 37.61209 | 24.68269 | 15638 ft | 255 kts | 130° |
| 2026-04-11 10:28 | 37.60274 | 24.70134 | 15815 ft | 251 kts | 107° |
| 2026-04-11 10:28 | 37.59704 | 24.72211 | 16088 ft | 252 kts | 105° |
| 2026-04-11 10:29 | 37.59105 | 24.74295 | 16376 ft | 254 kts | 107° |
| 2026-04-11 10:29 | 37.58400 | 24.76354 | 16626 ft | 257 kts | 111° |
| 2026-04-11 10:29 | 37.57616 | 24.78389 | 16880 ft | 259 kts | 112° |
| 2026-04-11 10:29 | 37.56813 | 24.80426 | 17135 ft | 260 kts | 112° |
| 2026-04-11 10:30 | 37.56007 | 24.82471 | 17376 ft | 261 kts | 112° |
| 2026-04-11 10:30 | 37.55198 | 24.84529 | 17618 ft | 263 kts | 112° |
| 2026-04-11 10:30 | 37.54399 | 24.86608 | 17870 ft | 265 kts | 112° |
| 2026-04-11 10:30 | 37.53601 | 24.88700 | 18305 ft | 266 kts | 112° |
| 2026-04-11 10:31 | 37.52801 | 24.90806 | 18689 ft | 268 kts | 111° |
| 2026-04-11 10:31 | 37.51992 | 24.92931 | 18899 ft | 270 kts | 111° |
| 2026-04-11 10:31 | 37.51177 | 24.95076 | 19021 ft | 275 kts | 111° |
| 2026-04-11 10:31 | 37.50348 | 24.97276 | 19067 ft | 281 kts | 111° |
| 2026-04-11 10:32 | 37.49501 | 24.99532 | 19099 ft | 289 kts | 112° |
| 2026-04-11 10:32 | 37.48624 | 25.01846 | 19123 ft | 296 kts | 112° |
| 2026-04-11 10:32 | 37.47719 | 25.04211 | 19126 ft | 303 kts | 112° |
| 2026-04-11 10:32 | 37.46792 | 25.06619 | 19128 ft | 308 kts | 112° |
| 2026-04-11 10:33 | 37.45851 | 25.09066 | 19129 ft | 313 kts | 112° |
| 2026-04-11 10:33 | 37.44899 | 25.11546 | 19129 ft | 317 kts | 112° |
| 2026-04-11 10:33 | 37.43937 | 25.14055 | 19128 ft | 320 kts | 112° |
| 2026-04-11 10:33 | 37.42967 | 25.16584 | 19127 ft | 322 kts | 112° |
| 2026-04-11 10:34 | 37.41991 | 25.19120 | 19126 ft | 320 kts | 113° |
| 2026-04-11 10:34 | 37.41020 | 25.21630 | 19129 ft | 318 kts | 112° |
| 2026-04-11 10:34 | 37.40062 | 25.24124 | 19124 ft | 316 kts | 112° |
| 2026-04-11 10:34 | 37.39111 | 25.26608 | 19122 ft | 314 kts | 112° |
| 2026-04-11 10:35 | 37.38164 | 25.29074 | 19119 ft | 312 kts | 112° |
| 2026-04-11 10:35 | 37.37219 | 25.31528 | 19099 ft | 311 kts | 112° |
| 2026-04-11 10:35 | 37.36276 | 25.33970 | 19108 ft | 310 kts | 113° |
| 2026-04-11 10:35 | 37.35335 | 25.36405 | 19104 ft | 309 kts | 113° |
| 2026-04-11 10:36 | 37.34395 | 25.38832 | 19108 ft | 309 kts | 113° |
| 2026-04-11 10:36 | 37.33457 | 25.41256 | 19106 ft | 308 kts | 113° |
| 2026-04-11 10:36 | 37.32533 | 25.43644 | 19106 ft | 308 kts | 112° |
| 2026-04-11 10:36 | 37.31584 | 25.46098 | 19109 ft | 309 kts | 113° |
| 2026-04-11 10:37 | 37.30655 | 25.48492 | 19106 ft | 309 kts | 113° |
| 2026-04-11 10:37 | 37.29713 | 25.50920 | 19111 ft | 309 kts | 113° |
| 2026-04-11 10:37 | 37.28767 | 25.53350 | 19060 ft | 312 kts | 113° |
| 2026-04-11 10:37 | 37.27807 | 25.55821 | 18913 ft | 317 kts | 113° |
| 2026-04-11 10:38 | 37.26819 | 25.58360 | 18774 ft | 322 kts | 113° |
| 2026-04-11 10:38 | 37.25843 | 25.60862 | 18606 ft | 326 kts | 114° |
| 2026-04-11 10:38 | 37.23821 | 25.66044 | 18144 ft | 334 kts | 114° |
| 2026-04-11 10:39 | 37.22792 | 25.68673 | 17892 ft | 337 kts | 114° |
| 2026-04-11 10:39 | 37.21755 | 25.71322 | 17644 ft | 339 kts | 114° |
| 2026-04-11 10:39 | 37.20712 | 25.73985 | 17405 ft | 341 kts | 114° |
| 2026-04-11 10:39 | 37.19666 | 25.76661 | 17158 ft | 342 kts | 114° |
| 2026-04-11 10:40 | 37.18617 | 25.79341 | 16922 ft | 343 kts | 114° |
| 2026-04-11 10:40 | 37.17565 | 25.82025 | 16694 ft | 343 kts | 114° |
| 2026-04-11 10:40 | 37.16511 | 25.84713 | 16457 ft | 344 kts | 114° |
| 2026-04-11 10:40 | 37.15456 | 25.87399 | 16243 ft | 344 kts | 114° |
| 2026-04-11 10:41 | 37.14399 | 25.90089 | 16026 ft | 344 kts | 114° |
| 2026-04-11 10:41 | 37.13343 | 25.92773 | 15814 ft | 344 kts | 114° |
| 2026-04-11 10:41 | 37.12290 | 25.95443 | 15607 ft | 338 kts | 114° |
| 2026-04-11 10:41 | 37.11258 | 25.98053 | 15414 ft | 331 kts | 114° |
| 2026-04-11 10:42 | 37.10247 | 26.00618 | 15222 ft | 325 kts | 114° |
| 2026-04-11 10:42 | 37.09257 | 26.03139 | 15036 ft | 320 kts | 114° |
| 2026-04-11 10:42 | 37.08277 | 26.05628 | 14863 ft | 317 kts | 114° |
| 2026-04-11 10:42 | 37.07305 | 26.08097 | 14685 ft | 316 kts | 114° |
| 2026-04-11 10:43 | 37.05369 | 26.12979 | 14351 ft | 311 kts | 114° |
| 2026-04-11 10:43 | 37.04411 | 26.15398 | 14191 ft | 309 kts | 114° |
| 2026-04-11 10:43 | 37.03457 | 26.17805 | 14032 ft | 308 kts | 114° |
| 2026-04-11 10:44 | 37.02507 | 26.20205 | 13872 ft | 307 kts | 114° |
| 2026-04-11 10:44 | 37.01558 | 26.22596 | 13698 ft | 306 kts | 114° |
| 2026-04-11 10:44 | 37.00608 | 26.25010 | 13527 ft | 314 kts | 114° |
| 2026-04-11 10:44 | 36.99640 | 26.27496 | 13366 ft | 321 kts | 114° |
| 2026-04-11 10:45 | 36.98643 | 26.29965 | 13204 ft | 314 kts | 115° |
| 2026-04-11 10:45 | 36.97657 | 26.32376 | 13033 ft | 310 kts | 115° |
| 2026-04-11 10:45 | 36.96678 | 26.34779 | 12854 ft | 311 kts | 115° |
| 2026-04-11 10:45 | 36.95701 | 26.37216 | 12696 ft | 317 kts | 115° |
| 2026-04-11 10:46 | 36.94705 | 26.39710 | 12538 ft | 324 kts | 115° |
| 2026-04-11 10:46 | 36.93696 | 26.42219 | 12381 ft | 320 kts | 115° |
| 2026-04-11 10:46 | 36.92714 | 26.44680 | 12226 ft | 314 kts | 115° |
| 2026-04-11 10:46 | 36.91744 | 26.47101 | 12079 ft | 310 kts | 115° |
| 2026-04-11 10:47 | 36.90785 | 26.49494 | 11937 ft | 307 kts | 115° |
| 2026-04-11 10:47 | 36.89832 | 26.51886 | 11802 ft | 310 kts | 115° |
| 2026-04-11 10:47 | 36.88863 | 26.54307 | 11662 ft | 313 kts | 115° |
| 2026-04-11 10:47 | 36.87880 | 26.56751 | 11530 ft | 316 kts | 115° |
| 2026-04-11 10:48 | 36.86890 | 26.59205 | 11392 ft | 317 kts | 115° |
| 2026-04-11 10:48 | 36.85896 | 26.61674 | 11257 ft | 319 kts | 115° |
| 2026-04-11 10:48 | 36.84903 | 26.64149 | 11124 ft | 319 kts | 115° |
| 2026-04-11 10:48 | 36.83938 | 26.66607 | 10989 ft | 309 kts | 110° |
| 2026-04-11 10:49 | 36.83615 | 26.69180 | 10855 ft | 294 kts | 84° |
| 2026-04-11 10:49 | 36.83809 | 26.71690 | 10725 ft | 287 kts | 74° |
| 2026-04-11 10:49 | 36.84325 | 26.74060 | 10601 ft | 279 kts | 65° |
| 2026-04-11 10:49 | 36.84994 | 26.76318 | 10463 ft | 275 kts | 62° |
| 2026-04-11 10:50 | 36.85675 | 26.78542 | 10346 ft | 273 kts | 63° |
| 2026-04-11 10:50 | 36.86322 | 26.80763 | 10153 ft | 273 kts | 64° |
| 2026-04-11 10:50 | 36.86915 | 26.82965 | 9734 ft | 257 kts | 65° |
| 2026-04-11 10:50 | 36.87447 | 26.85011 | 9303 ft | 239 kts | 65° |
| 2026-04-11 10:51 | 36.87945 | 26.86935 | 8876 ft | 227 kts | 65° |
| 2026-04-11 10:51 | 36.88436 | 26.88773 | 8384 ft | 221 kts | 65° |
| 2026-04-11 10:51 | 36.88921 | 26.90570 | 7880 ft | 216 kts | 66° |
| 2026-04-11 10:51 | 36.89402 | 26.92339 | 7385 ft | 214 kts | 66° |
| 2026-04-11 10:52 | 36.89789 | 26.94103 | 6890 ft | 210 kts | 79° |
| 2026-04-11 10:52 | 36.89821 | 26.95914 | 6393 ft | 208 kts | 91° |
| 2026-04-11 10:52 | 36.89619 | 26.97682 | 5875 ft | 205 kts | 101° |
| 2026-04-11 10:52 | 36.89272 | 26.99405 | 5368 ft | 204 kts | 105° |
| 2026-04-11 10:53 | 36.88862 | 27.01088 | 4886 ft | 199 kts | 105° |
| 2026-04-11 10:53 | 36.88574 | 27.02727 | 4371 ft | 189 kts | 94° |
| 2026-04-11 10:53 | 36.88822 | 27.04221 | 3854 ft | 176 kts | 52° |
| 2026-04-11 10:53 | 36.89407 | 27.04900 | 3513 ft | 167 kts | 32° |
| 2026-04-11 10:54 | 36.90751 | 27.05653 | 2838 ft | 160 kts | 355° |
| 2026-04-11 10:54 | 36.91768 | 27.05025 | 2392 ft | 164 kts | 324° |
| 2026-04-11 10:54 | 36.92536 | 27.04061 | 2177 ft | 153 kts | 303° |
| 2026-04-11 10:54 | 36.93075 | 27.03010 | 2073 ft | 136 kts | 307° |
| 2026-04-11 10:55 | 36.93421 | 27.02360 | 2043 ft | 129 kts | 306° |
| 2026-04-11 10:55 | 36.93865 | 27.01474 | 2032 ft | 112 kts | 306° |
| 2026-04-11 10:55 | 36.94244 | 27.00657 | 1985 ft | 108 kts | 306° |
| 2026-04-11 10:55 | 36.94649 | 26.99856 | 1837 ft | 110 kts | 308° |
| 2026-04-11 10:56 | 36.95070 | 26.99065 | 1725 ft | 110 kts | 306° |
| 2026-04-11 10:56 | 36.95474 | 26.98206 | 1519 ft | 119 kts | 303° |
| 2026-04-11 10:56 | 36.95807 | 26.97264 | 1258 ft | 120 kts | 295° |
| 2026-04-11 10:56 | 36.96006 | 26.96279 | 1011 ft | 114 kts | 285° |
| 2026-04-11 10:57 | 36.96152 | 26.95266 | 889 ft | 117 kts | 286° |
| 2026-04-11 10:57 | 36.96307 | 26.94292 | 730 ft | 113 kts | 286° |
| 2026-04-11 10:57 | 36.96395 | 26.93788 | 729 ft | 22 kts | 282° |
| 2026-04-11 10:57 | 36.96416 | 26.93658 | 728 ft | 14 kts | 282° |
| 2026-04-11 10:58 | 36.96435 | 26.93546 | 727 ft | 12 kts | 281° |
| 2026-04-11 10:58 | 36.96468 | 26.93472 | 728 ft | 6 kts | 268° |
| 2026-04-11 10:58 | 36.96444 | 26.93459 | 728 ft | 5 kts | 161° |
| 2026-04-11 10:58 | 36.96436 | 26.93507 | 727 ft | 9 kts | 86° |
| 2026-04-11 10:59 | 36.96428 | 26.93590 | 727 ft | 10 kts | 103° |
| 2026-04-11 10:59 | 36.96412 | 26.93674 | 728 ft | 10 kts | 101° |
| 2026-04-11 10:59 | 36.96400 | 26.93760 | 729 ft | 10 kts | 101° |
| 2026-04-11 10:59 | 36.96386 | 26.93847 | 729 ft | 11 kts | 102° |
| 2026-04-11 11:00 | 36.96371 | 26.93936 | 728 ft | 11 kts | 102° |
| 2026-04-11 11:00 | 36.96355 | 26.94027 | 729 ft | 10 kts | 101° |
| 2026-04-11 11:00 | 36.96354 | 26.94098 | 730 ft | 4 kts | 46° |
| 2026-04-11 11:00 | 36.96382 | 26.94107 | 729 ft | 5 kts | 354° |
| 2026-04-11 11:01 | 36.96406 | 26.94063 | 728 ft | 11 kts | 287° |
| 2026-04-11 11:01 | 36.96422 | 26.94014 | 729 ft | 1 kts | 355° |
| 2026-04-11 11:01 | 36.96433 | 26.94025 | 728 ft | 4 kts | 50° |
| 2026-04-11 11:01 | 36.96440 | 26.94051 | 728 ft | 1 kts | 107° |
| 2026-04-11 11:02 | 36.96434 | 26.94080 | 728 ft | 0 kts | 103° |